sensor_id;sensor_type;location;lat;lon;timestamp;P1;durP1;ratioP1;P2;durP2;ratioP2
29414;SDS011;20303;48.302;11.914;2023-02-24T00:02:46;9.02;;;4.80;;
29414;SDS011;20303;48.302;11.914;2023-02-24T00:12:47;9.30;;;4.55;;
29414;SDS011;20303;48.302;11.914;2023-02-24T00:22:48;8.70;;;4.82;;
29414;SDS011;20303;48.302;11.914;2023-02-24T00:32:49;10.52;;;4.80;;
29414;SDS011;20303;48.302;11.914;2023-02-24T00:42:50;9.30;;;4.60;;
29414;SDS011;20303;48.302;11.914;2023-02-24T00:52:52;10.00;;;4.60;;
29414;SDS011;20303;48.302;11.914;2023-02-24T01:02:53;9.73;;;4.35;;
29414;SDS011;20303;48.302;11.914;2023-02-24T01:12:58;6.85;;;4.35;;
29414;SDS011;20303;48.302;11.914;2023-02-24T01:22:59;7.60;;;4.47;;
29414;SDS011;20303;48.302;11.914;2023-02-24T01:33:02;8.90;;;4.80;;
29414;SDS011;20303;48.302;11.914;2023-02-24T01:43:03;8.13;;;4.47;;
29414;SDS011;20303;48.302;11.914;2023-02-24T01:53:07;7.70;;;4.10;;
29414;SDS011;20303;48.302;11.914;2023-02-24T02:03:26;6.22;;;4.03;;
29414;SDS011;20303;48.302;11.914;2023-02-24T02:13:31;6.13;;;3.95;;
29414;SDS011;20303;48.302;11.914;2023-02-24T02:44:54;5.90;;;4.10;;
29414;SDS011;20303;48.302;11.914;2023-02-24T02:54:47;6.10;;;3.80;;
29414;SDS011;20303;48.302;11.914;2023-02-24T03:04:58;4.75;;;3.90;;
29414;SDS011;20303;48.302;11.914;2023-02-24T03:15:01;5.10;;;3.65;;
29414;SDS011;20303;48.302;11.914;2023-02-24T03:25:03;5.50;;;3.58;;
29414;SDS011;20303;48.302;11.914;2023-02-24T03:35:08;5.32;;;3.80;;
29414;SDS011;20303;48.302;11.914;2023-02-24T03:45:12;5.63;;;4.00;;
29414;SDS011;20303;48.302;11.914;2023-02-24T03:55:34;5.50;;;3.70;;
29414;SDS011;20303;48.302;11.914;2023-02-24T04:05:46;5.97;;;3.60;;
29414;SDS011;20303;48.302;11.914;2023-02-24T04:15:53;4.80;;;3.30;;
29414;SDS011;20303;48.302;11.914;2023-02-24T04:25:58;5.25;;;3.50;;
29414;SDS011;20303;48.302;11.914;2023-02-24T04:36:00;4.68;;;3.40;;
29414;SDS011;20303;48.302;11.914;2023-02-24T04:46:01;4.32;;;3.53;;
29414;SDS011;20303;48.302;11.914;2023-02-24T04:56:06;4.32;;;3.28;;
29414;SDS011;20303;48.302;11.914;2023-02-24T05:06:12;4.53;;;3.45;;
29414;SDS011;20303;48.302;11.914;2023-02-24T05:16:16;4.82;;;3.10;;
29414;SDS011;20303;48.302;11.914;2023-02-24T05:26:20;3.78;;;3.13;;
29414;SDS011;20303;48.302;11.914;2023-02-24T05:36:25;4.85;;;3.05;;
29414;SDS011;20303;48.302;11.914;2023-02-24T05:46:28;4.20;;;3.22;;
29414;SDS011;20303;48.302;11.914;2023-02-24T05:56:32;3.90;;;3.17;;
29414;SDS011;20303;48.302;11.914;2023-02-24T06:06:34;4.20;;;3.03;;
29414;SDS011;20303;48.302;11.914;2023-02-24T06:16:38;3.90;;;3.00;;
29414;SDS011;20303;48.302;11.914;2023-02-24T06:26:41;5.88;;;3.15;;
29414;SDS011;20303;48.302;11.914;2023-02-24T06:36:42;4.40;;;3.15;;
29414;SDS011;20303;48.302;11.914;2023-02-24T06:46:43;6.13;;;3.25;;
29414;SDS011;20303;48.302;11.914;2023-02-24T06:56:45;6.80;;;3.47;;
29414;SDS011;20303;48.302;11.914;2023-02-24T07:06:47;6.03;;;3.13;;
29414;SDS011;20303;48.302;11.914;2023-02-24T07:16:54;7.57;;;3.78;;
29414;SDS011;20303;48.302;11.914;2023-02-24T07:27:01;7.95;;;3.38;;
29414;SDS011;20303;48.302;11.914;2023-02-24T07:37:20;6.32;;;3.60;;
29414;SDS011;20303;48.302;11.914;2023-02-24T07:47:23;8.50;;;3.92;;
29414;SDS011;20303;48.302;11.914;2023-02-24T07:57:24;7.35;;;3.75;;
29414;SDS011;20303;48.302;11.914;2023-02-24T08:07:25;8.45;;;3.67;;
29414;SDS011;20303;48.302;11.914;2023-02-24T08:17:29;6.50;;;3.45;;
29414;SDS011;20303;48.302;11.914;2023-02-24T08:27:33;7.45;;;3.75;;
29414;SDS011;20303;48.302;11.914;2023-02-24T08:37:49;6.20;;;3.53;;
29414;SDS011;20303;48.302;11.914;2023-02-24T08:47:54;6.78;;;3.40;;
29414;SDS011;20303;48.302;11.914;2023-02-24T08:57:59;7.53;;;3.70;;
29414;SDS011;20303;48.302;11.914;2023-02-24T09:08:00;5.97;;;3.17;;
29414;SDS011;20303;48.302;11.914;2023-02-24T09:18:04;6.15;;;3.28;;
29414;SDS011;20303;48.302;11.914;2023-02-24T09:28:14;4.70;;;3.53;;
29414;SDS011;20303;48.302;11.914;2023-02-24T09:38:17;5.05;;;3.05;;
29414;SDS011;20303;48.302;11.914;2023-02-24T09:48:21;7.95;;;3.08;;
29414;SDS011;20303;48.302;11.914;2023-02-24T09:59:04;4.03;;;3.05;;
29414;SDS011;20303;48.302;11.914;2023-02-24T10:09:36;3.72;;;2.80;;
29414;SDS011;20303;48.302;11.914;2023-02-24T10:19:40;4.18;;;2.75;;
29414;SDS011;20303;48.302;11.914;2023-02-24T10:40:05;4.05;;;2.97;;
29414;SDS011;20303;48.302;11.914;2023-02-24T10:50:21;4.32;;;2.80;;
29414;SDS011;20303;48.302;11.914;2023-02-24T11:00:46;3.88;;;2.72;;
29414;SDS011;20303;48.302;11.914;2023-02-24T11:10:59;6.30;;;3.00;;
29414;SDS011;20303;48.302;11.914;2023-02-24T11:21:07;8.60;;;3.42;;
29414;SDS011;20303;48.302;11.914;2023-02-24T11:31:20;9.15;;;3.28;;
29414;SDS011;20303;48.302;11.914;2023-02-24T11:41:46;7.47;;;3.33;;
29414;SDS011;20303;48.302;11.914;2023-02-24T11:51:52;16.08;;;3.70;;
29414;SDS011;20303;48.302;11.914;2023-02-24T12:01:54;8.07;;;3.38;;
29414;SDS011;20303;48.302;11.914;2023-02-24T12:12:02;8.93;;;3.40;;
29414;SDS011;20303;48.302;11.914;2023-02-24T12:22:15;10.02;;;3.47;;
29414;SDS011;20303;48.302;11.914;2023-02-24T12:32:23;9.50;;;3.60;;
29414;SDS011;20303;48.302;11.914;2023-02-24T12:53:26;9.27;;;3.20;;
29414;SDS011;20303;48.302;11.914;2023-02-24T13:13:46;10.10;;;4.32;;
29414;SDS011;20303;48.302;11.914;2023-02-24T13:24:00;8.63;;;4.10;;
29414;SDS011;20303;48.302;11.914;2023-02-24T13:34:10;10.82;;;4.25;;
29414;SDS011;20303;48.302;11.914;2023-02-24T13:44:24;8.68;;;4.28;;
29414;SDS011;20303;48.302;11.914;2023-02-24T14:04:37;10.02;;;4.10;;
29414;SDS011;20303;48.302;11.914;2023-02-24T14:14:44;11.38;;;4.22;;
29414;SDS011;20303;48.302;11.914;2023-02-24T14:24:45;9.85;;;3.58;;
29414;SDS011;20303;48.302;11.914;2023-02-24T14:34:46;8.68;;;3.88;;
29414;SDS011;20303;48.302;11.914;2023-02-24T14:44:49;7.05;;;3.63;;
29414;SDS011;20303;48.302;11.914;2023-02-24T14:55:12;8.52;;;3.90;;
29414;SDS011;20303;48.302;11.914;2023-02-24T15:05:25;7.93;;;3.60;;
29414;SDS011;20303;48.302;11.914;2023-02-24T15:15:27;12.70;;;3.80;;
29414;SDS011;20303;48.302;11.914;2023-02-24T15:25:43;12.45;;;4.18;;
29414;SDS011;20303;48.302;11.914;2023-02-24T15:35:52;10.70;;;3.90;;
29414;SDS011;20303;48.302;11.914;2023-02-24T15:45:54;11.68;;;4.38;;
29414;SDS011;20303;48.302;11.914;2023-02-24T15:55:56;11.30;;;3.95;;
29414;SDS011;20303;48.302;11.914;2023-02-24T16:05:57;8.27;;;3.55;;
29414;SDS011;20303;48.302;11.914;2023-02-24T16:15:58;8.80;;;3.55;;
29414;SDS011;20303;48.302;11.914;2023-02-24T16:25:59;9.15;;;3.40;;
29414;SDS011;20303;48.302;11.914;2023-02-24T16:36:00;8.50;;;3.20;;
29414;SDS011;20303;48.302;11.914;2023-02-24T16:46:02;8.07;;;3.50;;
29414;SDS011;20303;48.302;11.914;2023-02-24T16:56:04;7.53;;;3.20;;
29414;SDS011;20303;48.302;11.914;2023-02-24T17:06:07;7.68;;;3.30;;
29414;SDS011;20303;48.302;11.914;2023-02-24T17:16:09;9.35;;;3.63;;
29414;SDS011;20303;48.302;11.914;2023-02-24T17:26:12;6.45;;;3.10;;
29414;SDS011;20303;48.302;11.914;2023-02-24T17:36:14;7.22;;;3.00;;
29414;SDS011;20303;48.302;11.914;2023-02-24T17:46:15;5.35;;;2.83;;
29414;SDS011;20303;48.302;11.914;2023-02-24T17:56:16;8.60;;;3.10;;
29414;SDS011;20303;48.302;11.914;2023-02-24T18:06:17;8.50;;;3.47;;
29414;SDS011;20303;48.302;11.914;2023-02-24T18:16:18;5.78;;;2.85;;
29414;SDS011;20303;48.302;11.914;2023-02-24T18:26:19;6.28;;;2.80;;
29414;SDS011;20303;48.302;11.914;2023-02-24T18:36:21;6.85;;;2.85;;
29414;SDS011;20303;48.302;11.914;2023-02-24T18:46:23;8.30;;;2.83;;
29414;SDS011;20303;48.302;11.914;2023-02-24T18:56:25;6.88;;;2.80;;
29414;SDS011;20303;48.302;11.914;2023-02-24T19:06:28;5.10;;;2.47;;
29414;SDS011;20303;48.302;11.914;2023-02-24T19:16:30;5.60;;;2.65;;
29414;SDS011;20303;48.302;11.914;2023-02-24T19:26:31;5.63;;;2.60;;
29414;SDS011;20303;48.302;11.914;2023-02-24T19:36:33;5.25;;;2.63;;
29414;SDS011;20303;48.302;11.914;2023-02-24T19:46:35;5.82;;;2.50;;
29414;SDS011;20303;48.302;11.914;2023-02-24T19:56:36;4.93;;;2.50;;
29414;SDS011;20303;48.302;11.914;2023-02-24T20:06:38;4.47;;;2.45;;
29414;SDS011;20303;48.302;11.914;2023-02-24T20:16:40;6.00;;;2.65;;
29414;SDS011;20303;48.302;11.914;2023-02-24T20:26:43;5.80;;;2.72;;
29414;SDS011;20303;48.302;11.914;2023-02-24T20:36:47;6.18;;;2.40;;
29414;SDS011;20303;48.302;11.914;2023-02-24T20:46:48;4.10;;;2.47;;
29414;SDS011;20303;48.302;11.914;2023-02-24T20:56:49;4.55;;;2.55;;
29414;SDS011;20303;48.302;11.914;2023-02-24T21:06:50;5.22;;;2.50;;
29414;SDS011;20303;48.302;11.914;2023-02-24T21:16:51;3.75;;;2.20;;
29414;SDS011;20303;48.302;11.914;2023-02-24T21:26:52;3.33;;;2.08;;
29414;SDS011;20303;48.302;11.914;2023-02-24T21:36:53;4.15;;;2.25;;
29414;SDS011;20303;48.302;11.914;2023-02-24T21:46:55;3.10;;;2.08;;
29414;SDS011;20303;48.302;11.914;2023-02-24T21:56:56;4.75;;;2.15;;
29414;SDS011;20303;48.302;11.914;2023-02-24T22:06:57;4.88;;;2.10;;
29414;SDS011;20303;48.302;11.914;2023-02-24T22:16:58;3.15;;;2.10;;
29414;SDS011;20303;48.302;11.914;2023-02-24T22:26:59;3.58;;;2.15;;
29414;SDS011;20303;48.302;11.914;2023-02-24T22:37:00;3.08;;;1.90;;
29414;SDS011;20303;48.302;11.914;2023-02-24T22:47:01;3.05;;;1.98;;
29414;SDS011;20303;48.302;11.914;2023-02-24T22:57:03;2.60;;;1.70;;
29414;SDS011;20303;48.302;11.914;2023-02-24T23:07:04;2.75;;;1.85;;
29414;SDS011;20303;48.302;11.914;2023-02-24T23:17:05;2.78;;;2.00;;
29414;SDS011;20303;48.302;11.914;2023-02-24T23:27:07;2.00;;;1.63;;
29414;SDS011;20303;48.302;11.914;2023-02-24T23:37:08;2.45;;;1.65;;
29414;SDS011;20303;48.302;11.914;2023-02-24T23:47:11;3.70;;;1.80;;
29414;SDS011;20303;48.302;11.914;2023-02-24T23:57:12;4.47;;;1.88;;
